createdAt,value
2022-10-19T00:01:23.616Z,17.07
2022-10-19T00:03:54.855Z,15.00
2022-10-19T00:06:28.731Z,17.77
2022-10-19T00:08:59.553Z,14.47
2022-10-19T00:11:27.580Z,11.60
2022-10-19T00:13:56.496Z,13.90
2022-10-19T00:16:25.709Z,13.43
2022-10-19T00:18:52.429Z,13.50
2022-10-19T00:21:19.926Z,10.23
2022-10-19T00:23:46.983Z,12.80
2022-10-19T00:26:14.143Z,10.80
2022-10-19T00:28:42.425Z,11.50
2022-10-19T00:31:14.989Z,13.27
2022-10-19T00:33:43.379Z,12.20
2022-10-19T00:36:25.527Z,13.80
2022-10-19T00:38:54.333Z,11.27
2022-10-19T00:41:24.834Z,8.30
2022-10-19T00:44:08.100Z,12.33
2022-10-19T00:46:41.900Z,15.80
2022-10-19T00:49:15.967Z,12.40
2022-10-19T00:51:48.731Z,9.67
2022-10-19T00:54:17.559Z,9.20
2022-10-19T00:56:48.804Z,12.13
2022-10-19T00:59:19.636Z,9.80
2022-10-19T01:01:48.840Z,11.40
2022-10-19T01:04:16.058Z,10.67
2022-10-19T01:06:43.090Z,14.33
2022-10-19T01:09:09.906Z,13.60
2022-10-19T01:12:01.250Z,11.20
2022-10-19T01:15:18.064Z,13.47
2022-10-19T01:17:51.136Z,14.23
2022-10-19T01:21:03.276Z,11.80
2022-10-19T01:24:35.823Z,14.83
2022-10-19T01:27:22.876Z,12.07
2022-10-19T01:30:01.269Z,12.03
2022-10-19T01:32:40.212Z,15.73
2022-10-19T01:35:50.411Z,16.63
2022-10-19T01:38:50.018Z,14.53
2022-10-19T01:41:35.396Z,14.93
2022-10-19T01:44:16.122Z,13.33
2022-10-19T01:46:52.413Z,15.60
2022-10-19T01:49:47.039Z,12.37
2022-10-19T01:52:18.782Z,14.53
2022-10-19T01:54:52.003Z,11.80
2022-10-19T01:57:28.086Z,13.93
2022-10-19T01:59:57.175Z,11.73
2022-10-19T02:02:27.823Z,8.77
2022-10-19T02:04:57.522Z,10.10
2022-10-19T02:07:26.169Z,14.63
2022-10-19T02:09:52.912Z,13.87
2022-10-19T02:12:21.686Z,15.53
2022-10-19T02:14:54.650Z,21.10
2022-10-19T02:17:28.956Z,12.63
2022-10-19T02:19:57.691Z,12.13
2022-10-19T02:22:24.525Z,12.37
2022-10-19T02:24:51.750Z,10.93
2022-10-19T02:27:18.997Z,14.13
2022-10-19T02:29:46.278Z,11.73
2022-10-19T02:32:13.220Z,13.77
2022-10-19T02:34:41.027Z,10.13
2022-10-19T02:37:08.261Z,10.67
2022-10-19T02:39:35.289Z,11.43
2022-10-19T02:42:28.364Z,17.43
2022-10-19T02:45:09.910Z,16.27
2022-10-19T02:47:44.498Z,23.73
2022-10-19T02:50:13.202Z,13.47
2022-10-19T02:52:41.434Z,18.33
2022-10-19T02:55:09.345Z,14.43
2022-10-19T02:57:36.941Z,18.40
2022-10-19T03:00:07.588Z,18.37
2022-10-19T03:02:35.075Z,14.33
2022-10-19T03:05:02.217Z,15.83
2022-10-19T03:07:28.967Z,19.27
2022-10-19T03:09:55.744Z,14.13
2022-10-19T03:12:22.456Z,15.70
2022-10-19T03:14:49.287Z,20.90
2022-10-19T03:17:15.998Z,21.93
2022-10-19T03:19:42.854Z,19.17
2022-10-19T03:22:09.666Z,18.13
2022-10-19T03:24:36.390Z,17.20
2022-10-19T03:27:03.152Z,19.60
2022-10-19T03:29:29.894Z,23.33
2022-10-19T03:31:56.641Z,16.10
2022-10-19T03:34:23.424Z,13.73
2022-10-19T03:36:50.297Z,18.13
2022-10-19T03:39:17.282Z,19.23
2022-10-19T03:41:44.863Z,11.57
2022-10-19T03:44:11.878Z,17.30
2022-10-19T03:46:39.577Z,16.13
2022-10-19T03:49:07.139Z,18.00
2022-10-19T03:51:35.299Z,16.00
2022-10-19T03:54:06.244Z,19.40
2022-10-19T03:56:34.931Z,15.33
2022-10-19T03:59:03.880Z,18.70
2022-10-19T04:01:35.633Z,16.07
2022-10-19T04:04:06.931Z,15.57
2022-10-19T04:06:38.048Z,17.33
2022-10-19T04:09:07.384Z,16.47
2022-10-19T04:11:35.680Z,19.90
2022-10-19T04:14:03.453Z,24.70
2022-10-19T04:16:31.895Z,23.60
2022-10-19T04:18:59.388Z,88.80
2022-10-19T04:21:36.170Z,91.13
2022-10-19T04:24:12.667Z,82.27
2022-10-19T04:26:52.740Z,88.90
2022-10-19T04:29:24.939Z,85.30
2022-10-19T04:31:54.682Z,80.47
2022-10-19T04:34:21.398Z,56.63
2022-10-19T04:36:48.269Z,94.67
2022-10-19T04:39:15.179Z,54.57
2022-10-19T04:41:41.864Z,32.83
2022-10-19T04:44:09.493Z,21.47
2022-10-19T04:46:37.307Z,16.40
2022-10-19T04:49:06.054Z,23.40
2022-10-19T04:51:32.787Z,15.43
2022-10-19T04:54:00.070Z,11.87
2022-10-19T04:56:28.350Z,12.93
2022-10-19T04:58:59.804Z,14.10
2022-10-19T05:01:29.165Z,31.20
2022-10-19T05:03:59.686Z,14.27
2022-10-19T05:06:27.183Z,12.73
2022-10-19T05:08:54.463Z,11.93
2022-10-19T05:11:22.027Z,12.33
2022-10-19T05:13:49.228Z,15.27
2022-10-19T05:16:20.617Z,11.23
2022-10-19T05:18:50.025Z,19.10
2022-10-19T05:21:18.382Z,14.63
2022-10-19T05:23:45.628Z,16.17
2022-10-19T05:26:17.413Z,18.97
2022-10-19T05:28:49.630Z,56.43
2022-10-19T05:31:20.198Z,49.37
2022-10-19T05:33:47.368Z,59.80
2022-10-19T05:36:29.502Z,47.57
2022-10-19T05:38:57.899Z,87.47
2022-10-19T05:41:26.496Z,143.77
2022-10-19T05:43:59.645Z,244.63
2022-10-19T05:46:29.080Z,341.80
2022-10-19T05:49:00.115Z,384.23
2022-10-19T05:51:28.297Z,347.80
2022-10-19T05:53:56.330Z,343.87
2022-10-19T05:56:26.767Z,232.90
2022-10-19T05:58:55.678Z,156.43
2022-10-19T06:01:22.915Z,161.93
2022-10-19T06:03:55.072Z,92.07
2022-10-19T06:06:23.398Z,68.70
2022-10-19T06:08:52.261Z,30.43
2022-10-19T06:11:26.372Z,25.23
2022-10-19T06:13:56.807Z,18.10
2022-10-19T06:16:26.230Z,25.30
2022-10-19T06:18:54.431Z,39.37
2022-10-19T06:21:25.028Z,121.47
2022-10-19T06:23:53.733Z,53.87
2022-10-19T06:26:21.369Z,86.87
2022-10-19T06:28:49.333Z,80.90
2022-10-19T06:31:17.596Z,85.13
2022-10-19T06:33:48.634Z,32.23
2022-10-19T06:36:23.577Z,46.57
2022-10-19T06:38:50.548Z,65.13
2022-10-19T06:41:17.781Z,100.73
2022-10-19T06:43:48.576Z,187.73
2022-10-19T06:46:20.329Z,106.73
2022-10-19T06:48:59.661Z,113.67
2022-10-19T06:51:29.765Z,91.13
2022-10-19T06:53:57.470Z,189.20
2022-10-19T06:56:26.598Z,102.73
2022-10-19T06:58:54.195Z,99.23
2022-10-19T07:01:22.154Z,99.27
2022-10-19T07:03:52.233Z,74.97
2022-10-19T07:06:19.971Z,83.33
2022-10-19T07:08:46.815Z,97.03
2022-10-19T07:11:20.066Z,122.30
2022-10-19T07:13:46.842Z,156.80
2022-10-19T07:16:19.792Z,199.00
2022-10-19T07:18:51.172Z,115.00
2022-10-19T07:21:20.317Z,174.63
2022-10-19T07:23:48.163Z,111.20
2022-10-19T07:26:23.393Z,192.27
2022-10-19T07:28:51.238Z,112.57
2022-10-19T07:31:21.551Z,99.43
2022-10-19T07:34:00.385Z,79.43
2022-10-19T07:36:29.088Z,49.83
2022-10-19T07:38:56.597Z,87.27
2022-10-19T07:41:26.017Z,121.13
2022-10-19T07:43:54.059Z,94.87
2022-10-19T07:46:28.972Z,37.30
2022-10-19T07:48:56.059Z,62.90
2022-10-19T07:51:23.318Z,69.50
2022-10-19T07:53:50.193Z,90.43
2022-10-19T07:56:21.133Z,99.23
2022-10-19T07:58:50.539Z,140.00
2022-10-19T08:01:21.241Z,157.70
2022-10-19T08:06:37.408Z,114.10
2022-10-19T08:09:05.307Z,38.17
2022-10-19T08:11:35.637Z,54.90
2022-10-19T08:14:03.730Z,129.00
2022-10-19T08:16:40.191Z,115.43
2022-10-19T08:19:11.113Z,150.60
2022-10-19T08:21:39.940Z,153.10
2022-10-19T08:24:07.729Z,226.43
2022-10-19T08:26:40.070Z,143.37
2022-10-19T08:29:17.056Z,130.53
2022-10-19T08:31:45.896Z,128.83
2022-10-19T08:34:15.950Z,146.83
2022-10-19T08:36:42.928Z,109.03
2022-10-19T08:39:14.319Z,156.57
2022-10-19T08:41:41.034Z,127.40
2022-10-19T08:44:29.738Z,195.73
2022-10-19T08:47:37.037Z,127.70
2022-10-19T08:50:19.993Z,110.07
2022-10-19T08:52:57.780Z,116.37
2022-10-19T08:55:41.342Z,125.23
2022-10-19T08:58:38.852Z,72.73
2022-10-19T09:01:48.029Z,64.90
2022-10-19T09:04:34.963Z,105.40
2022-10-19T09:07:22.592Z,70.77
2022-10-19T09:10:03.735Z,80.57
2022-10-19T09:13:03.092Z,30.67
2022-10-19T09:15:40.405Z,76.00
2022-10-19T09:18:32.677Z,49.27
2022-10-19T09:21:33.433Z,39.30
2022-10-19T09:24:53.147Z,41.60
2022-10-19T09:27:26.780Z,20.47
2022-10-19T09:30:01.199Z,29.23
2022-10-19T09:32:38.969Z,20.67
2022-10-19T09:35:27.992Z,22.33
2022-10-19T09:37:56.193Z,20.73
2022-10-19T09:40:28.369Z,27.23
2022-10-19T09:43:02.585Z,30.17
2022-10-19T09:45:39.159Z,19.57
2022-10-19T09:48:36.210Z,21.93
2022-10-19T09:51:11.833Z,19.07
2022-10-19T09:53:44.447Z,16.10
2022-10-19T09:56:24.474Z,23.23
2022-10-19T09:59:00.049Z,19.43
2022-10-19T10:01:43.010Z,20.17
2022-10-19T10:04:18.451Z,16.97
2022-10-19T10:06:48.190Z,21.37
2022-10-19T10:09:26.069Z,17.73
2022-10-19T10:11:56.417Z,21.33
2022-10-19T10:14:32.321Z,22.60
2022-10-19T10:17:21.903Z,25.23
2022-10-19T10:19:57.657Z,26.83
2022-10-19T10:22:36.288Z,30.47
2022-10-19T10:25:17.770Z,28.27
2022-10-19T10:27:57.346Z,33.70
2022-10-19T10:30:24.324Z,29.20
2022-10-19T10:32:54.884Z,25.63
2022-10-19T10:35:49.756Z,30.97
2022-10-19T10:38:30.549Z,35.00
2022-10-19T10:41:08.249Z,32.10
2022-10-19T10:43:49.284Z,36.87
2022-10-19T10:46:24.984Z,35.07
2022-10-19T10:48:59.981Z,36.50
2022-10-19T10:51:39.000Z,35.73
2022-10-19T10:54:31.267Z,30.80
2022-10-19T10:57:19.887Z,33.93
2022-10-19T10:59:52.656Z,33.90
2022-10-19T11:02:41.430Z,36.10
2022-10-19T11:05:34.519Z,32.40
2022-10-19T11:08:22.382Z,32.13
2022-10-19T11:11:15.102Z,39.20
2022-10-19T11:13:55.951Z,38.73
2022-10-19T11:16:31.276Z,33.37
2022-10-19T11:19:23.283Z,34.60
2022-10-19T11:22:23.647Z,42.70
2022-10-19T11:25:47.129Z,35.57
2022-10-19T11:28:52.010Z,40.17
2022-10-19T11:31:32.849Z,38.83
2022-10-19T11:34:33.181Z,38.60
2022-10-19T11:37:15.566Z,35.23
2022-10-19T11:40:22.450Z,38.10
2022-10-19T11:43:08.381Z,35.20
2022-10-19T11:46:14.162Z,36.77
2022-10-19T11:49:01.099Z,36.23
2022-10-19T11:51:53.479Z,31.13
2022-10-19T11:54:51.757Z,35.80
2022-10-19T11:57:49.386Z,34.50
2022-10-19T12:00:38.795Z,32.63
2022-10-19T12:03:36.705Z,35.17
2022-10-19T12:06:47.283Z,29.53
2022-10-19T12:09:43.101Z,34.27
2022-10-19T12:12:22.433Z,30.03
2022-10-19T12:14:56.621Z,34.37
2022-10-19T12:17:33.011Z,33.90
2022-10-19T12:20:08.184Z,37.63
2022-10-19T12:22:37.671Z,28.47
2022-10-19T12:25:05.943Z,29.93
2022-10-19T12:27:38.914Z,36.43
2022-10-19T12:30:20.552Z,31.67
2022-10-19T12:33:25.187Z,32.43
2022-10-19T12:36:08.581Z,27.40
2022-10-19T12:39:02.342Z,29.60
2022-10-19T12:41:36.596Z,27.30
2022-10-19T12:45:00.475Z,33.43
2022-10-19T12:47:27.359Z,24.23
2022-10-19T12:49:58.726Z,25.23
2022-10-19T12:52:49.489Z,23.13
2022-10-19T12:55:16.192Z,24.17
2022-10-19T12:57:55.724Z,22.80
2022-10-19T13:00:26.819Z,24.77
2022-10-19T13:03:14.084Z,20.13
2022-10-19T13:05:41.282Z,27.77
2022-10-19T13:08:12.085Z,23.90
2022-10-19T13:10:41.273Z,21.07
2022-10-19T13:13:50.927Z,20.93
2022-10-19T13:16:29.581Z,21.07
2022-10-19T13:18:59.228Z,20.27
2022-10-19T13:21:51.786Z,19.80
2022-10-19T13:24:24.541Z,20.53
2022-10-19T13:27:03.646Z,20.33
2022-10-19T13:29:41.216Z,20.27
2022-10-19T13:32:32.711Z,15.13
2022-10-19T13:35:22.667Z,18.30
2022-10-19T13:38:16.947Z,18.17
2022-10-19T13:40:49.496Z,12.93
2022-10-19T13:43:20.166Z,17.00
2022-10-19T13:46:27.756Z,16.53
2022-10-19T13:49:30.326Z,12.07
2022-10-19T13:52:40.888Z,10.27
2022-10-19T13:55:47.237Z,11.93
2022-10-19T13:58:52.765Z,13.90
2022-10-19T14:01:50.915Z,12.80
2022-10-19T14:05:11.239Z,9.57
2022-10-19T14:08:25.962Z,16.27
2022-10-19T14:11:06.832Z,14.33
2022-10-19T14:13:34.816Z,16.67
2022-10-19T14:16:02.937Z,14.50
2022-10-19T14:18:36.245Z,14.50
2022-10-19T14:21:09.894Z,17.93
2022-10-19T14:23:42.583Z,17.30
2022-10-19T14:26:23.231Z,16.10
2022-10-19T14:28:56.976Z,20.27
2022-10-19T14:31:31.797Z,11.00
2022-10-19T14:34:03.142Z,12.07
2022-10-19T14:36:45.511Z,14.27
2022-10-19T14:39:34.254Z,10.97
2022-10-19T14:42:09.239Z,11.47
2022-10-19T14:44:40.160Z,12.10
2022-10-19T14:47:24.023Z,10.67
2022-10-19T14:49:51.251Z,11.00
2022-10-19T14:52:29.161Z,11.90
2022-10-19T14:54:57.122Z,10.57
2022-10-19T14:57:34.872Z,13.00
2022-10-19T15:00:11.544Z,13.70
2022-10-19T15:02:52.918Z,15.30
2022-10-19T15:05:27.930Z,8.70
2022-10-19T15:07:55.888Z,21.73
2022-10-19T15:10:38.914Z,14.97
2022-10-19T15:13:07.635Z,9.80
2022-10-19T15:15:35.929Z,10.03
2022-10-19T15:18:06.351Z,8.67
2022-10-19T15:20:49.497Z,9.30
2022-10-19T15:23:44.194Z,15.40
2022-10-19T15:26:29.740Z,8.63
2022-10-19T15:29:22.114Z,13.67
2022-10-19T15:31:49.069Z,8.40
2022-10-19T15:34:29.666Z,12.27
2022-10-19T15:37:00.453Z,10.07
2022-10-19T15:39:40.081Z,9.60
2022-10-19T15:42:45.502Z,16.43
2022-10-19T15:45:38.372Z,9.50
2022-10-19T15:48:11.049Z,11.67
2022-10-19T15:50:43.654Z,12.43
2022-10-19T15:53:10.605Z,11.17
2022-10-19T15:55:37.305Z,9.30
2022-10-19T15:58:04.049Z,9.90
2022-10-19T16:00:32.415Z,7.73
2022-10-19T16:02:59.168Z,10.53
2022-10-19T16:05:25.992Z,8.03
2022-10-19T16:07:52.685Z,10.13
2022-10-19T16:10:24.817Z,8.53
2022-10-19T16:12:52.197Z,10.63
2022-10-19T16:15:23.114Z,10.57
2022-10-19T16:17:54.527Z,7.80
2022-10-19T16:20:22.184Z,11.27
2022-10-19T16:22:49.185Z,11.17
2022-10-19T16:25:16.580Z,10.37
2022-10-19T16:27:43.922Z,8.73
2022-10-19T16:30:11.428Z,11.60
2022-10-19T16:32:39.831Z,13.37
2022-10-19T16:35:11.582Z,6.33
2022-10-19T16:37:38.330Z,8.37
2022-10-19T16:40:06.199Z,9.13
2022-10-19T16:42:34.760Z,9.50
2022-10-19T16:45:01.794Z,8.47
2022-10-19T16:47:28.590Z,11.23
2022-10-19T16:50:04.881Z,11.77
2022-10-19T16:52:33.031Z,11.90
2022-10-19T16:55:00.567Z,8.27
2022-10-19T16:57:27.502Z,11.77
2022-10-19T16:59:54.592Z,7.50
2022-10-19T17:02:22.406Z,9.00
2022-10-19T17:04:49.370Z,12.17
2022-10-19T17:07:16.425Z,10.63
2022-10-19T17:09:43.623Z,18.67
2022-10-19T17:12:11.594Z,8.47
2022-10-19T17:14:41.409Z,10.00
2022-10-19T17:17:10.036Z,5.53
2022-10-19T17:19:37.600Z,11.47
2022-10-19T17:22:05.358Z,11.70
2022-10-19T17:24:32.479Z,15.53
2022-10-19T17:27:05.143Z,11.50
2022-10-19T17:29:32.073Z,11.00
2022-10-19T17:31:59.565Z,12.90
2022-10-19T17:34:27.310Z,12.57
2022-10-19T17:36:54.352Z,18.10
2022-10-19T17:39:27.295Z,6.90
2022-10-19T17:42:01.283Z,9.07
2022-10-19T17:44:29.945Z,10.03
2022-10-19T17:46:56.739Z,12.30
2022-10-19T17:49:23.480Z,12.43
2022-10-19T17:51:53.622Z,12.10
2022-10-19T17:54:20.620Z,9.97
2022-10-19T17:56:47.414Z,13.57
2022-10-19T17:59:14.407Z,12.17
2022-10-19T18:01:41.576Z,8.03
2022-10-19T18:04:08.324Z,9.13
2022-10-19T18:06:37.787Z,13.57
2022-10-19T18:09:08.875Z,9.33
2022-10-19T18:11:43.830Z,9.77
2022-10-19T18:14:12.613Z,9.50
2022-10-19T18:16:45.280Z,7.53
2022-10-19T18:19:15.078Z,10.27
2022-10-19T18:21:45.296Z,9.00
2022-10-19T18:24:19.273Z,10.77
2022-10-19T18:26:47.259Z,12.50
2022-10-19T18:29:22.479Z,9.97
2022-10-19T18:31:52.229Z,11.00
2022-10-19T18:34:24.509Z,8.87
2022-10-19T18:36:52.297Z,9.07
2022-10-19T18:39:19.311Z,11.50
2022-10-19T18:41:46.131Z,9.23
2022-10-19T18:44:14.085Z,9.67
2022-10-19T18:46:41.124Z,9.27
2022-10-19T18:49:10.319Z,13.63
2022-10-19T18:51:37.127Z,7.57
2022-10-19T18:54:04.467Z,12.87
2022-10-19T18:56:33.293Z,12.83
2022-10-19T18:59:00.331Z,13.77
2022-10-19T19:01:29.422Z,11.23
2022-10-19T19:04:04.551Z,12.37
2022-10-19T19:06:33.008Z,7.03
2022-10-19T19:09:02.224Z,11.93
2022-10-19T19:11:35.934Z,11.03
2022-10-19T19:14:14.400Z,8.87
2022-10-19T19:16:43.919Z,10.70
2022-10-19T19:19:14.270Z,11.20
2022-10-19T19:21:44.161Z,14.93
2022-10-19T19:24:19.107Z,12.63
2022-10-19T19:26:50.792Z,9.97
2022-10-19T19:29:18.989Z,9.30
2022-10-19T19:31:47.056Z,14.90
2022-10-19T19:34:14.348Z,12.60
2022-10-19T19:36:46.586Z,9.70
2022-10-19T19:39:16.016Z,9.80
2022-10-19T19:41:42.741Z,18.53
2022-10-19T19:44:09.540Z,8.60
2022-10-19T19:46:36.410Z,10.77
2022-10-19T19:49:04.833Z,11.87
2022-10-19T19:51:32.441Z,11.67
2022-10-19T19:53:59.665Z,11.53
2022-10-19T19:56:26.892Z,12.10
2022-10-19T19:58:59.298Z,9.67
2022-10-19T20:01:27.067Z,11.63
2022-10-19T20:03:54.043Z,12.47
2022-10-19T20:06:24.968Z,15.03
2022-10-19T20:08:54.055Z,12.00
2022-10-19T20:11:21.934Z,11.87
2022-10-19T20:13:49.455Z,8.87
2022-10-19T20:16:26.535Z,13.93
2022-10-19T20:19:01.063Z,12.23
2022-10-19T20:21:27.941Z,12.97
2022-10-19T20:23:54.669Z,13.63
2022-10-19T20:26:24.623Z,14.87
2022-10-19T20:28:52.255Z,13.63
2022-10-19T20:31:19.634Z,9.50
2022-10-19T20:33:47.830Z,16.77
2022-10-19T20:36:24.887Z,11.37
2022-10-19T20:38:57.802Z,16.47
2022-10-19T20:41:27.646Z,11.47
2022-10-19T20:43:55.643Z,10.90
2022-10-19T20:46:29.404Z,12.43
2022-10-19T20:49:00.680Z,14.17
2022-10-19T20:51:33.378Z,13.33
2022-10-19T20:54:04.029Z,10.70
2022-10-19T20:56:35.351Z,14.30
2022-10-19T20:59:10.735Z,11.50
2022-10-19T21:01:40.092Z,16.10
2022-10-19T21:04:11.251Z,16.83
2022-10-19T21:06:42.121Z,13.10
2022-10-19T21:09:10.158Z,12.57
2022-10-19T21:11:40.221Z,13.23
2022-10-19T21:14:28.257Z,12.70
2022-10-19T21:16:58.683Z,11.70
2022-10-19T21:19:28.805Z,13.37
2022-10-19T21:22:01.794Z,11.43
2022-10-19T21:24:36.218Z,15.70
2022-10-19T21:27:07.470Z,13.17
2022-10-19T21:29:34.787Z,13.90
2022-10-19T21:32:01.900Z,12.43
2022-10-19T21:34:30.868Z,12.07
2022-10-19T21:36:58.558Z,13.80
2022-10-19T21:39:25.353Z,15.27
2022-10-19T21:41:52.362Z,16.63
2022-10-19T21:44:22.048Z,16.47
2022-10-19T21:46:49.256Z,15.27
2022-10-19T21:49:16.541Z,11.47
2022-10-19T21:51:49.426Z,13.30
2022-10-19T21:54:21.147Z,14.17
2022-10-19T21:56:48.257Z,13.90
2022-10-19T21:59:15.971Z,12.13
2022-10-19T22:01:43.045Z,12.40
2022-10-19T22:04:14.995Z,13.97
2022-10-19T22:06:43.031Z,18.27
2022-10-19T22:09:17.732Z,13.40
2022-10-19T22:11:44.923Z,12.30
2022-10-19T22:14:14.619Z,15.63
2022-10-19T22:16:42.079Z,12.20
2022-10-19T22:19:09.994Z,17.37
2022-10-19T22:24:09.581Z,11.87
2022-10-19T22:26:40.770Z,11.60
2022-10-19T22:29:07.950Z,15.60
2022-10-19T22:31:36.749Z,13.97
2022-10-19T22:34:08.388Z,13.30
2022-10-19T22:36:35.464Z,13.73
2022-10-19T22:39:03.281Z,16.87
2022-10-19T22:41:30.091Z,14.30
2022-10-19T22:43:56.784Z,17.80
2022-10-19T22:46:23.514Z,14.37
2022-10-19T22:48:50.203Z,18.07
2022-10-19T22:51:16.946Z,13.90
2022-10-19T22:53:43.679Z,13.13
2022-10-19T22:56:13.665Z,13.23
2022-10-19T22:58:40.597Z,12.97
2022-10-19T23:01:11.278Z,14.40
2022-10-19T23:03:40.199Z,12.53
2022-10-19T23:06:08.334Z,13.43
2022-10-19T23:08:35.248Z,15.70
2022-10-19T23:11:02.026Z,13.13
2022-10-19T23:13:28.861Z,11.13
2022-10-19T23:15:55.671Z,14.53
2022-10-19T23:18:22.605Z,13.70
2022-10-19T23:20:59.332Z,15.67
2022-10-19T23:23:27.640Z,13.25
2022-10-19T23:26:06.092Z,14.03
2022-10-19T23:28:35.616Z,15.03
2022-10-19T23:31:09.463Z,13.30
2022-10-19T23:33:37.614Z,13.60
2022-10-19T23:36:21.859Z,12.33
2022-10-19T23:38:52.184Z,14.30
2022-10-19T23:41:20.202Z,15.30
2022-10-19T23:43:47.954Z,12.37
2022-10-19T23:46:15.326Z,17.20
2022-10-19T23:48:42.189Z,16.40
2022-10-19T23:51:21.125Z,13.93
2022-10-19T23:53:51.717Z,19.17
2022-10-19T23:56:23.789Z,12.37
2022-10-19T23:58:51.591Z,13.93
